Hauptseite
METAR-TAF:

METAR-TAF

Flughäfen :

Flughafen Braunschweig-Wolfsburg

Braunschweig, Deutschland

Breite: 52-18N, Länge: 010-27E, Höhe: 81 m

Beobachtung

Neuester Wetterbericht von vor 6 Stunden und 40 Minuten, um 20:50 UTC
Wind 12 kt aus Ost
Temperatur 1°C
Luftfeuchtigkeit 86%
Luftdruck 1015 hPa
Sichtweite: 8000 m
Geschlossene Wolkendecke in der Höhe von 1000 ft

METAR: EDVE 202050Z 10012KT 8000 OVC010 01/M01 Q1015

Zeit: 04:30 (03:30 UTC)

Prognose

Neuester Wetterbericht von vor 10 Stunden und 30 Minuten, um 17:00 UTC
Gültige Prognose vom 20 um 18 UTC bis 20 um 21 UTC
Wind 10 kt aus Ost
Sichtweite 10 km oder mehr
Durchbrochene Bewölkung in der Höhe von 600 ft
Wahrscheinlichkeit 30% :
Zeitweise
vom 20 um 18 UTC bis 20 um 21 UTC
Sichtweite: 3500 m
Durchbrochene Bewölkung in der Höhe von 1000 ft
Schnee leicht, Regen

TAF: EDVE 201700Z 2018/2021 09010KT 9999 BKN006 PROB30 TEMPO 2018/2021 3500 -SNRA BKN010

Wetterbeobachtungen und Prognosen von mehr als 4000 Flughäfen (METAR und TAF Bericht).

Die verfügbaren Stationen werden durch gelbe und rote Markierungen auf der Karte dargestellt.

Führen Sie die Maus auf sie, um den Namen der Station zu sehen.

Darauf klicken, um die Beobachtung von Wetterbeobachtungen und Prognosen zu sehen.

Um die Karte zu ändern : klicken Sie auf den grünen Tasten mit einem schwarzen Kreuz Zum Vergrößern, auf den grünen Button mit einem Gedankenstrich zu verkleinern, oder auf die grünen Pfeile für benachbarte Karten.


METAR-TAF: